Latest Weather Observations for Minnipa RS

IDS60801

Issued at 7:01 pm CST Tuesday 26 May 2015 (issued every 30 minutes, with the page automatically refreshed every 10 minutes)

About weather observations | Map of weather stations | Latest weather observations for SA | Other Formats
Station Details ID: 018195 Name: MINNIPA PIRSA Lat: -32.84 Lon: 135.15 Height: 165.0 m
Data from the previous 72 hours. | See also: Recent months at Minnipa RS
Date/Time
CST
Temp
°C
App
Temp
°C
Dew
Point
Rel
Hum
%
Delta-T
°C
Wind Press
QNH
hPa
Press
MSL
hPa
Rain
since 9 am
mm
Dir
 
Spd
km/h
Gust
km/h
Spd
kts
Gust
kts
26/07:00pm 14.6 14.4 9.0 69 2.9 CALM 0 0 0 0 1022.3 - 0.2
26/06:30pm 15.0 14.7 8.5 65 3.3 CALM 0 0 0 0 1022.4 - 0.2
26/06:00pm 15.9 14.4 8.6 62 3.7 SSW 6 9 3 5 1022.2 1022.1 0.2
26/05:30pm 16.5 14.9 8.7 60 4.0 SSW 7 9 4 5 1021.9 - 0.2
26/05:00pm 17.3 15.2 8.4 56 4.6 SSW 9 11 5 6 1021.7 - 0.2
26/04:30pm 17.9 14.6 8.2 53 5.0 SW 15 19 8 10 1021.8 - 0.2
26/04:00pm 18.7 14.4 7.2 47 5.9 SSW 19 26 10 14 1021.7 - 0.2
26/03:30pm 20.5 17.3 5.3 37 7.5 WSW 11 17 6 9 1021.3 - 0.2
26/03:00pm 20.5 16.8 6.1 39 7.2 WSW 15 20 8 11 1021.3 1021.2 0.2
26/02:30pm 20.7 16.8 5.5 37 7.6 WSW 15 20 8 11 1021.4 - 0.2
26/02:00pm 21.3 17.1 5.6 36 7.9 W 17 28 9 15 1021.6 - 0.2
26/01:30pm 20.6 16.3 5.4 37 7.6 W 17 20 9 11 1022.0 - 0.2
26/01:00pm 21.0 16.9 6.2 38 7.5 W 17 24 9 13 1022.3 - 0.2
26/12:30pm 20.7 17.0 6.3 39 7.3 W 15 22 8 12 1022.7 - 0.2
26/12:00pm 20.6 16.4 5.8 38 7.4 WNW 17 22 9 12 1023.0 1022.9 0.2
26/11:30am 20.9 16.2 5.3 36 7.8 NW 19 28 10 15 1023.6 - 0.2
26/11:00am 20.6 16.7 6.9 41 7.0 NNW 17 24 9 13 1024.3 - 0.0
26/10:30am 18.4 14.7 7.8 50 5.4 N 17 22 9 12 1024.5 - 0.0
26/10:00am 17.0 13.0 8.4 57 4.4 N 19 24 10 13 1024.8 - 0.0
26/09:30am 16.2 12.7 8.7 61 3.8 N 17 20 9 11 1024.6 - 0.0
26/09:00am 14.8 11.1 7.8 63 3.5 N 17 20 9 11 1024.8 1024.7 0.4
26/08:30am 13.7 10.3 7.7 67 3.0 N 15 19 8 10 1024.7 - 0.4
26/08:00am 12.2 8.7 7.3 72 2.4 NNE 15 17 8 9 1024.7 - 0.4
26/07:30am 10.7 7.4 6.6 76 1.9 NNE 13 17 7 9 1024.8 - 0.4
26/07:00am 11.1 7.5 6.8 75 2.1 NNE 15 17 8 9 1024.7 - 0.4
26/06:30am 11.0 7.4 6.9 76 2.0 NNE 15 17 8 9 1024.6 - 0.4
26/06:00am 11.9 8.0 7.0 72 2.4 NNE 17 19 9 10 1024.4 1024.3 0.4
26/05:30am 11.9 8.4 7.2 73 2.3 NNE 15 19 8 10 1024.5 - 0.4
26/05:00am 10.9 7.7 7.0 77 1.9 NNE 13 17 7 9 1024.6 - 0.4
26/04:30am 10.6 7.5 7.1 79 1.7 NNE 13 15 7 8 1024.7 - 0.4
26/04:00am 10.2 6.6 6.9 80 1.6 NE 15 17 8 9 1024.6 - 0.4
26/03:30am 10.7 7.5 7.0 78 1.8 NNE 13 15 7 8 1024.9 - 0.4
26/03:00am 10.1 6.8 6.6 79 1.6 NE 13 15 7 8 1025.0 1024.9 0.4
26/02:30am 10.6 7.4 6.7 77 1.9 NE 13 15 7 8 1025.2 - 0.4
26/02:00am 10.8 7.6 6.7 76 1.9 NE 13 15 7 8 1025.3 - 0.4
26/01:30am 11.5 8.5 7.6 77 1.9 NE 13 15 7 8 1025.7 - 0.4
26/01:00am 12.4 9.1 7.9 74 2.2 ENE 15 17 8 9 1025.7 - 0.4
26/12:30am 12.7 9.9 8.4 75 2.2 ENE 13 15 7 8 1025.9 - 0.4
26/12:00am 13.4 10.6 8.5 72 2.5 ENE 13 15 7 8 1026.1 1026.0 0.4
 
Date/Time
CST
Temp
°C
App
Temp
°C
Dew
Point
Rel
Hum
%
Delta-T
°C
Wind Press
QNH
hPa
Press
MSL
hPa
Rain
since 9 am
mm
Dir
 
Spd
km/h
Gust
km/h
Spd
kts
Gust
kts
25/11:30pm 13.2 10.8 8.7 74 2.3 E 11 13 6 7 1026.4 - 0.4
25/11:00pm 12.7 10.4 9.0 78 1.9 ESE 11 13 6 7 1026.4 - 0.4
25/10:30pm 12.6 10.3 9.1 79 1.8 SE 11 13 6 7 1026.2 - 0.4
25/10:00pm 12.7 11.1 8.8 77 2.0 ESE 7 9 4 5 1026.5 - 0.4
25/09:30pm 12.9 10.9 8.8 76 2.1 ENE 9 13 5 7 1026.3 - 0.4
25/09:00pm 13.2 11.7 9.3 77 2.0 SE 7 9 4 5 1026.7 1026.6 0.4
25/08:30pm 14.7 11.8 8.0 64 3.4 E 13 17 7 9 1026.3 - 0.4
25/08:00pm 14.5 11.7 8.5 67 3.0 E 13 15 7 8 1026.2 - 0.4
25/07:30pm 14.3 11.9 8.7 69 2.9 ENE 11 13 6 7 1026.1 - 0.4
25/07:00pm 14.4 12.2 9.2 71 2.7 ENE 11 13 6 7 1025.9 - 0.4
25/06:30pm 14.3 12.2 9.9 75 2.3 NE 11 13 6 7 1025.9 - 0.4
25/06:00pm 14.8 14.7 9.6 71 2.7 CALM 0 0 0 0 1025.8 1025.7 0.4
25/05:30pm 14.8 14.8 9.8 72 2.6 CALM 0 0 0 0 1025.7 - 0.4
25/05:00pm 15.7 16.0 10.9 73 2.6 CALM 0 0 0 0 1025.6 - 0.4
25/04:30pm 17.1 15.6 8.3 56 4.5 W 6 7 3 4 1025.9 - 0.0
25/04:00pm 17.6 15.6 7.1 50 5.3 NNW 7 11 4 6 1026.0 - 0.0
25/03:30pm 18.4 15.2 5.3 42 6.4 N 11 13 6 7 1025.5 - 0.0
25/03:00pm 19.0 15.9 3.6 36 7.3 N 9 15 5 8 1025.5 1025.4 0.0
25/02:30pm 19.4 16.0 4.0 36 7.4 NNW 11 17 6 9 1025.0 - 0.0
25/02:00pm 19.5 15.4 4.4 37 7.3 N 15 19 8 10 1025.0 - 0.0
25/01:30pm 19.3 14.9 4.6 38 7.1 N 17 22 9 12 1025.1 - 0.0
25/01:00pm 18.8 13.7 4.2 38 7.0 NNE 20 26 11 14 1025.5 - 0.0
25/12:30pm 18.9 13.0 3.9 37 7.2 N 24 32 13 17 1026.3 - 0.0
25/12:00pm 19.3 13.9 4.3 37 7.2 N 22 30 12 16 1026.9 1026.8 0.0
25/11:30am 19.2 14.3 4.9 39 7.0 N 20 28 11 15 1027.2 - 0.0
25/11:00am 17.9 12.9 4.8 42 6.3 N 20 26 11 14 1027.5 - 0.0
25/10:30am 16.8 12.1 5.1 46 5.6 NNE 19 24 10 13 1027.6 - 0.0
25/10:00am 16.2 11.5 5.2 48 5.3 NE 19 24 10 13 1027.4 - 0.0
25/09:30am 14.6 10.1 6.2 57 4.1 NE 19 20 10 11 1027.5 - 0.0
25/09:00am 13.2 8.7 5.9 61 3.5 NE 19 22 10 12 1027.6 1027.5 0.0
25/08:30am 12.3 7.7 5.7 64 3.1 NE 19 22 10 12 1027.6 - 0.0
25/08:00am 11.1 6.2 5.2 67 2.7 NE 20 22 11 12 1027.7 - 0.0
25/07:30am 9.7 4.8 4.9 72 2.2 NE 20 24 11 13 1027.5 - 0.0
25/07:00am 9.1 4.0 4.3 72 2.1 NE 20 22 11 12 1027.1 - 0.0
25/06:30am 9.6 4.6 4.6 71 2.2 ENE 20 22 11 12 1026.8 - 0.0
25/06:00am 10.1 5.1 4.7 69 2.4 NE 20 22 11 12 1026.9 1026.8 0.0
25/05:30am 10.2 5.2 4.6 68 2.5 ENE 20 24 11 13 1026.8 - 0.0
25/05:00am 10.1 4.7 4.5 68 2.5 ENE 22 24 12 13 1026.6 - 0.0
25/04:30am 10.4 5.0 4.3 66 2.7 ENE 22 24 12 13 1026.5 - 0.0
25/04:00am 11.3 6.3 4.5 63 3.1 NE 20 24 11 13 1026.6 - 0.0
25/03:30am 11.2 6.3 4.9 65 2.9 ENE 20 24 11 13 1026.6 - 0.0
25/03:00am 10.4 5.4 4.8 68 2.5 ENE 20 22 11 12 1026.8 1026.7 0.0
25/02:30am 10.3 5.3 4.7 68 2.5 ENE 20 22 11 12 1026.7 - 0.0
25/02:00am 10.5 5.6 4.9 68 2.6 ENE 20 22 11 12 1026.6 - 0.0
25/01:30am 10.8 6.0 4.9 67 2.7 ENE 19 20 10 11 1026.7 - 0.0
25/01:00am 11.3 6.6 5.0 65 2.9 ENE 19 20 10 11 1026.9 - 0.0
25/12:30am 12.1 7.8 5.3 63 3.2 ENE 17 19 9 10 1027.2 - 0.0
25/12:00am 11.9 8.0 5.5 65 3.0 ENE 15 17 8 9 1027.3 1027.2 0.0
 
Date/Time
CST
Temp
°C
App
Temp
°C
Dew
Point
Rel
Hum
%
Delta-T
°C
Wind Press
QNH
hPa
Press
MSL
hPa
Rain
since 9 am
mm
Dir
 
Spd
km/h
Gust
km/h
Spd
kts
Gust
kts
24/11:30pm 12.3 8.9 5.7 64 3.1 ENE 13 17 7 9 1027.5 - 0.0
24/11:00pm 12.4 8.6 5.6 63 3.2 E 15 17 8 9 1027.5 - 0.0
24/10:30pm 12.7 9.3 5.8 63 3.3 E 13 15 7 8 1027.4 - 0.0
24/10:00pm 12.5 9.1 5.9 64 3.1 E 13 15 7 8 1027.4 - 0.0
24/09:30pm 11.9 8.9 6.2 68 2.7 E 11 13 6 7 1027.6 - 0.0
24/09:00pm 11.6 8.6 5.9 68 2.7 E 11 13 6 7 1027.5 1027.4 0.0
24/08:30pm 12.4 9.5 6.7 68 2.7 E 11 13 6 7 1027.4 - 0.0
24/08:00pm 12.6 9.9 7.5 71 2.5 E 11 13 6 7 1027.3 - 0.0
24/07:30pm 12.8 10.1 7.5 70 2.6 ENE 11 13 6 7 1027.3 - 0.0
24/07:00pm 12.9 10.1 7.1 68 2.8 ENE 11 13 6 7 1027.1 - 0.0
24/06:30pm 13.0 10.3 7.2 68 2.8 E 11 13 6 7 1026.8 - 0.0
24/06:00pm 13.7 11.0 7.2 65 3.2 E 11 13 6 7 1026.4 1026.3 0.0
24/05:30pm 14.3 12.3 7.1 62 3.5 E 7 9 4 5 1026.2 - 0.0
24/05:00pm 14.8 12.4 7.1 60 3.8 NE 9 13 5 7 1026.1 - 0.0
24/04:30pm 14.9 12.8 6.5 57 4.1 E 7 9 4 5 1025.8 - 0.0
24/04:00pm 15.1 11.8 6.4 56 4.2 NE 13 19 7 10 1026.1 - 0.0
24/03:30pm 15.4 11.7 6.1 54 4.5 NNE 15 20 8 11 1026.0 - 0.0
24/03:00pm 15.5 11.7 6.0 53 4.6 N 15 20 8 11 1026.3 1026.2 0.0
24/02:30pm 15.5 10.9 5.4 51 4.8 N 19 22 10 12 1026.5 - 0.0
24/02:00pm 16.4 12.3 6.0 50 5.1 NNE 17 22 9 12 1026.6 - 0.0
24/01:30pm 14.2 10.9 6.3 59 3.8 N 13 17 7 9 1026.8 - 0.0
24/01:00pm 14.4 10.7 6.3 58 3.9 N 15 17 8 9 1027.0 - 0.0
24/12:30pm 14.3 10.6 6.4 59 3.8 N 15 19 8 10 1027.2 - 0.0
24/12:00pm 13.9 9.9 6.7 62 3.5 N 17 20 9 11 1027.5 1027.4 0.0
24/11:30am 13.3 10.3 7.7 69 2.8 NNE 13 17 7 9 1027.9 - 0.0
24/11:00am 13.0 8.9 6.4 64 3.2 N 17 22 9 12 1028.1 - 0.0
24/10:30am 12.5 8.8 6.3 66 3.0 NE 15 19 8 10 1028.0 - 0.0
24/10:00am 12.0 8.0 6.7 70 2.5 NE 17 20 9 11 1028.0 - 0.0
24/09:30am 10.4 6.3 6.2 75 2.0 NE 17 20 9 11 1027.8 - 0.0
24/09:00am 10.3 6.1 5.9 74 2.0 NE 17 20 9 11 1027.5 1027.4 0.0
24/08:30am 10.3 6.2 6.1 75 2.0 NE 17 19 9 10 1027.4 - 0.0
24/08:00am 10.1 6.3 5.9 75 2.0 ENE 15 19 8 10 1027.2 - 0.0
24/07:30am 10.3 6.1 5.7 73 2.1 NE 17 19 9 10 1027.0 - 0.0
24/07:00am 10.1 6.3 5.7 74 2.0 NE 15 17 8 9 1026.7 - 0.0
24/06:30am 9.9 5.7 5.5 74 2.0 NE 17 19 9 10 1026.3 - 0.0
24/06:00am 9.9 6.0 5.3 73 2.1 NE 15 19 8 10 1026.4 1026.3 0.0
24/05:30am 10.1 5.8 5.3 72 2.2 NE 17 20 9 11 1026.4 - 0.0
24/05:00am 10.2 6.0 5.6 73 2.1 NE 17 20 9 11 1026.2 - 0.0
24/04:30am 9.4 5.0 5.0 74 2.0 NE 17 19 9 10 1026.1 - 0.0
24/04:00am 8.8 4.4 4.8 76 1.8 ENE 17 20 9 11 1026.0 - 0.0
24/03:30am 9.3 4.9 4.9 74 2.0 NE 17 20 9 11 1026.0 - 0.0
24/03:00am 9.3 4.5 4.9 74 2.0 ENE 19 20 10 11 1026.0 1025.9 0.0
24/02:30am 9.4 5.1 5.2 75 1.9 NE 17 20 9 11 1026.0 - 0.0
24/02:00am 9.6 4.9 5.0 73 2.1 NE 19 20 10 11 1026.1 - 0.0
24/01:30am 9.4 5.4 5.0 74 2.0 NE 15 19 8 10 1026.2 - 0.0
24/01:00am 9.5 4.7 4.9 73 2.1 NE 19 20 10 11 1026.1 - 0.0
24/12:30am 9.9 5.2 5.1 72 2.2 ENE 19 20 10 11 1026.4 - 0.0
24/12:00am 9.8 5.1 5.0 72 2.2 ENE 19 20 10 11 1026.7 1026.6 0.0
 
Date/Time
CST
Temp
°C
App
Temp
°C
Dew
Point
Rel
Hum
%
Delta-T
°C
Wind Press
QNH
hPa
Press
MSL
hPa
Rain
since 9 am
mm
Dir
 
Spd
km/h
Gust
km/h
Spd
kts
Gust
kts
23/11:30pm 10.1 6.2 5.3 72 2.2 NE 15 19 8 10 1026.8 - 0.0
23/11:00pm 10.1 5.4 5.1 71 2.3 ENE 19 20 10 11 1026.8 - 0.0
23/10:30pm 10.3 6.0 5.3 71 2.3 NE 17 19 9 10 1027.0 - 0.0
23/10:00pm 10.1 5.8 5.3 72 2.2 NE 17 19 9 10 1027.0 - 0.0
23/09:30pm 9.7 5.3 4.9 72 2.2 NE 17 17 9 9 1027.2 - 0.0
23/09:00pm 10.3 6.0 5.1 70 2.4 ENE 17 19 9 10 1027.3 1027.2 0.0
23/08:30pm 10.3 6.3 4.9 69 2.5 NE 15 17 8 9 1027.5 - 0.0
23/08:00pm 10.7 6.6 4.4 65 2.8 ENE 15 17 8 9 1027.3 - 0.0
23/07:30pm 11.3 7.6 4.3 62 3.2 NE 13 17 7 9 1027.2 - 0.0

Other Formats:

Comma delimited format used in spreadsheet applications
http://www.bom.gov.au/fwo/IDS60801/IDS60801.95662.axf

JavaScript Object Notation format (JSON) in row-major order
http://www.bom.gov.au/fwo/IDS60801/IDS60801.95662.json